Anaconda, New Mexico
Current Conditions -  °F | °C
As of 6:36 AM on Saturday 25 Oct 2014 (Local Time) from KGNT Reporting Station
Clear Clear  
Wind Chill: 25°   Ceiling: Unl
Heat Index: 30°   Visibility: 10mi
Dew Point: 25°   Wind: 5mph
Humidity: 80%   Direction: 300°WNW
Pressure: 30.38"   Gusts: NA
Location:  35.2644°N, 107.733°W
Report Text: KGNT 251236Z AUTO 30004KT 10SM CLR M01/M04 A3038 RMK AO2
Loading
Personal Weather Stations






























Interactive Weather Map
Tropical Storm Tracking
New forecast layout! Learn more

10-Day Weather Forecast

Advertisements
Track Severe Weather on mobile